Time;durP1;ratioP1;P1;durP2;ratioP2;P2;SDS_P1;SDS_P2;PMS_P1;PMS_P2;Temp;Humidity;BMP_temperature;BMP_pressure;BME280_temperature;BME280_humidity;BME280_pressure;Samples;Min_cycle;Max_cycle;Signal;HPM_P1;HPM_P2
2023/03/04 00:00:45;;;;;;;;;;;;;;;;;;4249963;27;19915;-42
2023/03/04 00:02:46;;;;;;;;;;;;;;;;;;4250404;27;19965;-41
2023/03/04 00:04:47;;;;;;;;;;;;;;;;;;4249493;27;20503;-41
2023/03/04 00:06:48;;;;;;;;;;;;;;;;;;4243921;27;19923;-41
2023/03/04 00:08:49;;;;;;;;;;;;;;;;;;4242371;27;19983;-41
2023/03/04 00:10:50;;;;;;;;;;;;;;;;;;4250103;27;19919;-41
2023/03/04 00:12:51;;;;;;;;;;;;;;;;;;4235561;27;19922;-41
2023/03/04 00:14:52;;;;;;;;;;;;;;;;;;4244802;27;19920;-41
2023/03/04 00:16:53;;;;;;;;;;;;;;;;;;4241276;27;20009;-42
2023/03/04 00:18:54;;;;;;;;;;;;;;;;;;4249598;27;19922;-40
2023/03/04 00:20:55;;;;;;;;;;;;;;;;;;4234912;27;19920;-41
2023/03/04 00:22:56;;;;;;;;;;;;;;;;;;4243805;27;19973;-41
2023/03/04 00:24:57;;;;;;;;;;;;;;;;;;4249041;27;19923;-41
2023/03/04 00:26:58;;;;;;;;;;;;;;;;;;4245837;27;19916;-41
2023/03/04 00:28:59;;;;;;;;;;;;;;;;;;4234292;27;19920;-41
2023/03/04 00:31:01;;;;;;;;;;;;;;;;;;4224728;28;20345;-40
2023/03/04 00:33:02;;;;;;;;;;;;;;;;;;4248565;27;19915;-41
2023/03/04 00:35:03;;;;;;;;;;;;;;;;;;4216584;28;19916;-41
2023/03/04 00:37:04;;;;;;;;;;;;;;;;;;4249493;27;19992;-41
2023/03/04 00:39:05;;;;;;;;;;;;;;;;;;4239325;27;19930;-41
2023/03/04 00:41:06;;;;;;;;;;;;;;;;;;4244768;27;20340;-40
2023/03/04 00:43:08;;;;;;;;;;;;;;;;;;4248015;27;20051;-40
2023/03/04 00:45:09;;;;;;;;;;;;;;;;;;4235680;27;20225;-41
2023/03/04 00:47:10;;;;;;;;;;;;;;;;;;4248408;27;19919;-41
2023/03/04 00:49:12;;;;;;;;;;;;;;;;;;4237682;27;20016;-41
2023/03/04 00:51:13;;;;;;;;;;;;;;;;;;4246199;27;19968;-41
2023/03/04 00:53:14;;;;;;;;;;;;;;;;;;4235329;27;19960;-40
2023/03/04 00:55:15;;;;;;;;;;;;;;;;;;4247898;27;20324;-41
2023/03/04 00:57:16;;;;;;;;;;;;;;;;;;4249186;27;19922;-41
2023/03/04 00:59:17;;;;;;;;;;;;;;;;;;4230620;28;19916;-40
2023/03/04 01:01:18;;;;;;;;;;;;;;;;;;4241909;27;19920;-40
2023/03/04 01:03:19;;;;;;;;;;;;;;;;;;4241393;27;20006;-41
2023/03/04 01:05:21;;;;;;;;;;;;;;;;;;4248238;27;19915;-41
2023/03/04 01:07:22;;;;;;;;;;;;;;;;;;4247344;27;19958;-41
2023/03/04 01:09:25;;;;;;;;;;;;;;;;;;4248810;27;19915;-42
2023/03/04 01:11:26;;;;;;;;;;;;;;;;;;4248959;27;19919;-41
2023/03/04 01:13:27;;;;;;;;;;;;;;;;;;4248956;27;19926;-40
2023/03/04 01:15:28;;;;;;;;;;;;;;;;;;4234629;27;20294;-40
2023/03/04 01:17:29;;;;;;;;;;;;;;;;;;4249284;27;19922;-41
2023/03/04 01:19:30;;;;;;;;;;;;;;;;;;4230267;28;20421;-41
2023/03/04 01:21:33;;;;;;;;;;;;;;;;;;4248710;27;19960;-40
2023/03/04 01:23:34;;;;;;;;;;;;;;;;;;4248416;27;19919;-41
2023/03/04 01:25:35;;;;;;;;;;;;;;;;;;4244435;27;20335;-41
2023/03/04 01:27:36;;;;;;;;;;;;;;;;;;4220670;28;19965;-41
2023/03/04 01:29:37;;;;;;;;;;;;;;;;;;4230527;28;19930;-41
2023/03/04 01:31:38;;;;;;;;;;;;;;;;;;4235053;27;19919;-41
2023/03/04 01:33:39;;;;;;;;;;;;;;;;;;4234148;27;20341;-41
2023/03/04 01:35:41;;;;;;;;;;;;;;;;;;4247929;27;19938;-41
2023/03/04 01:37:42;;;;;;;;;;;;;;;;;;4248502;27;19922;-41
2023/03/04 01:39:43;;;;;;;;;;;;;;;;;;4236002;27;20380;-40
2023/03/04 01:41:44;;;;;;;;;;;;;;;;;;4245281;27;19916;-40
2023/03/04 01:43:45;;;;;;;;;;;;;;;;;;4237224;27;19915;-42
2023/03/04 01:45:46;;;;;;;;;;;;;;;;;;4239349;27;20325;-41
2023/03/04 01:47:47;;;;;;;;;;;;;;;;;;4243506;27;19950;-40
2023/03/04 01:49:49;;;;;;;;;;;;;;;;;;4247465;27;20366;-43
2023/03/04 01:51:51;;;;;;;;;;;;;;;;;;4225558;28;19920;-41
2023/03/04 01:53:53;;;;;;;;;;;;;;;;;;4239477;27;19968;-39
2023/03/04 01:55:54;;;;;;;;;;;;;;;;;;4248302;27;19916;-40
2023/03/04 01:57:56;;;;;;;;;;;;;;;;;;4215429;28;20413;-41
2023/03/04 01:59:57;;;;;;;;;;;;;;;;;;4216723;28;19931;-41
2023/03/04 02:01:58;;;;;;;;;;;;;;;;;;4241069;27;19920;-40
2023/03/04 02:03:59;;;;;;;;;;;;;;;;;;4240956;27;19923;-41
2023/03/04 02:06:00;;;;;;;;;;;;;;;;;;4234618;27;19927;-41
2023/03/04 02:08:01;;;;;;;;;;;;;;;;;;4247368;27;20296;-41
2023/03/04 02:10:02;;;;;;;;;;;;;;;;;;4223909;28;19923;-41
2023/03/04 02:12:04;;;;;;;;;;;;;;;;;;4230977;28;19920;-41
2023/03/04 02:14:05;;;;;;;;;;;;;;;;;;4242125;27;19915;-41
2023/03/04 02:16:06;;;;;;;;;;;;;;;;;;4233712;27;19920;-41
2023/03/04 02:18:07;;;;;;;;;;;;;;;;;;4246726;27;19923;-41
2023/03/04 02:20:08;;;;;;;;;;;;;;;;;;4227073;28;19915;-40
2023/03/04 02:22:09;;;;;;;;;;;;;;;;;;4235487;27;19915;-41
2023/03/04 02:24:11;;;;;;;;;;;;;;;;;;4246237;27;19915;-42
2023/03/04 02:26:12;;;;;;;;;;;;;;;;;;4246877;27;19919;-41
2023/03/04 02:28:13;;;;;;;;;;;;;;;;;;4246231;27;19968;-42
2023/03/04 02:30:14;;;;;;;;;;;;;;;;;;4217144;28;20398;-40
2023/03/04 02:32:15;;;;;;;;;;;;;;;;;;4247780;27;20014;-41
2023/03/04 02:34:16;;;;;;;;;;;;;;;;;;4236979;27;19926;-42
2023/03/04 02:36:18;;;;;;;;;;;;;;;;;;4212700;28;19930;-41
2023/03/04 02:38:20;;;;;;;;;;;;;;;;;;4228664;28;19919;-41
2023/03/04 02:40:21;;;;;;;;;;;;;;;;;;4230417;28;19915;-41
2023/03/04 02:42:22;;;;;;;;;;;;;;;;;;4238757;27;19916;-41
2023/03/04 02:44:24;;;;;;;;;;;;;;;;;;4234046;27;19924;-41
2023/03/04 02:46:26;;;;;;;;;;;;;;;;;;4227677;28;19923;-41
2023/03/04 02:48:27;;;;;;;;;;;;;;;;;;4242538;27;20008;-41
2023/03/04 02:50:28;;;;;;;;;;;;;;;;;;4237010;27;19915;-41
2023/03/04 02:52:30;;;;;;;;;;;;;;;;;;4247774;27;20034;-38
2023/03/04 02:54:31;;;;;;;;;;;;;;;;;;4245821;27;20426;-41
2023/03/04 02:56:32;;;;;;;;;;;;;;;;;;4247529;27;19915;-41
2023/03/04 02:58:34;;;;;;;;;;;;;;;;;;4222228;28;20017;-42
2023/03/04 03:00:35;;;;;;;;;;;;;;;;;;4230298;28;19915;-40
2023/03/04 03:02:36;;;;;;;;;;;;;;;;;;4232799;27;19968;-41
2023/03/04 03:04:37;;;;;;;;;;;;;;;;;;4227944;28;19920;-40
2023/03/04 03:06:42;;;;;;;;;;;;;;;;;;4212078;28;20364;-41
2023/03/04 03:08:43;;;;;;;;;;;;;;;;;;4215608;28;19916;-42
2023/03/04 03:10:44;;;;;;;;;;;;;;;;;;4247057;27;19923;-41
2023/03/04 03:12:46;;;;;;;;;;;;;;;;;;4246095;27;19931;-41
2023/03/04 03:14:47;;;;;;;;;;;;;;;;;;4245909;27;20317;-41
2023/03/04 03:16:51;;;;;;;;;;;;;;;;;;4229332;28;19916;-41
2023/03/04 03:18:52;;;;;;;;;;;;;;;;;;4211710;28;19916;-38
2023/03/04 03:20:54;;;;;;;;;;;;;;;;;;4217672;28;19923;-41
2023/03/04 03:22:54;;;;;;;;;;;;;;;;;;4212129;28;19930;-41
2023/03/04 03:24:55;;;;;;;;;;;;;;;;;;4241840;28;19923;-40
2023/03/04 03:26:56;;;;;;;;;;;;;;;;;;4246981;28;19919;-41
2023/03/04 03:28:57;;;;;;;;;;;;;;;;;;4241930;28;19915;-41
2023/03/04 03:30:58;;;;;;;;;;;;;;;;;;4237828;27;19915;-41
2023/03/04 03:32:59;;;;;;;;;;;;;;;;;;4249901;27;20375;-41
2023/03/04 03:35:01;;;;;;;;;;;;;;;;;;4218064;28;19916;-39
2023/03/04 03:37:02;;;;;;;;;;;;;;;;;;4215530;28;20523;-42
2023/03/04 03:39:03;;;;;;;;;;;;;;;;;;4240001;27;19915;-41
2023/03/04 03:41:04;;;;;;;;;;;;;;;;;;4239828;27;20547;-41
2023/03/04 03:43:05;;;;;;;;;;;;;;;;;;4233170;28;19916;-40
2023/03/04 03:45:06;;;;;;;;;;;;;;;;;;4250423;27;19930;-41
2023/03/04 03:47:07;;;;;;;;;;;;;;;;;;4243887;27;19915;-40
2023/03/04 03:49:08;;;;;;;;;;;;;;;;;;4224278;28;20398;-40
2023/03/04 03:51:09;;;;;;;;;;;;;;;;;;4250363;27;19915;-41
2023/03/04 03:53:10;;;;;;;;;;;;;;;;;;4248069;27;19960;-41
2023/03/04 03:55:12;;;;;;;;;;;;;;;;;;4238374;27;20378;-41
2023/03/04 03:57:13;;;;;;;;;;;;;;;;;;4250083;27;19923;-42
2023/03/04 03:59:14;;;;;;;;;;;;;;;;;;4238370;27;19928;-40
2023/03/04 04:01:15;;;;;;;;;;;;;;;;;;4246764;27;20030;-41
2023/03/04 04:03:16;;;;;;;;;;;;;;;;;;4237338;27;19923;-41
2023/03/04 04:05:18;;;;;;;;;;;;;;;;;;4249647;27;19923;-40
2023/03/04 04:07:19;;;;;;;;;;;;;;;;;;4250096;27;20344;-41
2023/03/04 04:09:20;;;;;;;;;;;;;;;;;;4249934;27;19961;-41
2023/03/04 04:11:21;;;;;;;;;;;;;;;;;;4232415;28;19915;-40
2023/03/04 04:13:22;;;;;;;;;;;;;;;;;;4239198;27;19970;-41
2023/03/04 04:15:23;;;;;;;;;;;;;;;;;;4240241;27;19915;-40
2023/03/04 04:17:24;;;;;;;;;;;;;;;;;;4245514;27;19916;-41
2023/03/04 04:19:26;;;;;;;;;;;;;;;;;;4235102;27;19945;-41
2023/03/04 04:21:27;;;;;;;;;;;;;;;;;;4249720;27;19984;-41
2023/03/04 04:23:28;;;;;;;;;;;;;;;;;;4249430;27;20006;-40
2023/03/04 04:25:29;;;;;;;;;;;;;;;;;;4230436;28;19919;-41
2023/03/04 04:27:30;;;;;;;;;;;;;;;;;;4240392;28;19982;-41
2023/03/04 04:29:31;;;;;;;;;;;;;;;;;;4233049;28;19919;-41
2023/03/04 04:31:32;;;;;;;;;;;;;;;;;;4227814;28;19916;-40
2023/03/04 04:33:33;;;;;;;;;;;;;;;;;;4244846;28;19915;-42
2023/03/04 04:35:34;;;;;;;;;;;;;;;;;;4238188;28;19919;-41
2023/03/04 04:37:35;;;;;;;;;;;;;;;;;;4238266;28;19916;-41
2023/03/04 04:39:36;;;;;;;;;;;;;;;;;;4244902;28;19972;-41
2023/03/04 04:41:37;;;;;;;;;;;;;;;;;;4230252;28;19923;-41
2023/03/04 04:43:39;;;;;;;;;;;;;;;;;;4242123;27;20397;-41
2023/03/04 04:45:40;;;;;;;;;;;;;;;;;;4240320;28;20315;-41
2023/03/04 04:47:41;;;;;;;;;;;;;;;;;;4248392;28;19968;-41
2023/03/04 04:49:42;;;;;;;;;;;;;;;;;;4247705;28;19940;-42
2023/03/04 04:51:43;;;;;;;;;;;;;;;;;;4248333;28;20204;-41
2023/03/04 04:53:44;;;;;;;;;;;;;;;;;;4230482;28;19919;-41
2023/03/04 04:55:46;;;;;;;;;;;;;;;;;;4237050;28;20475;-41
2023/03/04 04:57:47;;;;;;;;;;;;;;;;;;4245105;28;19919;-40
2023/03/04 04:59:48;;;;;;;;;;;;;;;;;;4238947;28;19925;-41
2023/03/04 05:01:49;;;;;;;;;;;;;;;;;;4237186;28;19927;-40
2023/03/04 05:03:52;;;;;;;;;;;;;;;;;;4244825;28;20374;-41
2023/03/04 05:05:53;;;;;;;;;;;;;;;;;;4231221;28;19916;-41
2023/03/04 05:07:53;;;;;;;;;;;;;;;;;;4237879;28;19919;-41
2023/03/04 05:09:55;;;;;;;;;;;;;;;;;;4247940;28;19915;-41
2023/03/04 05:11:56;;;;;;;;;;;;;;;;;;4248058;28;19919;-41
2023/03/04 05:13:57;;;;;;;;;;;;;;;;;;4229370;28;19960;-39
2023/03/04 05:15:58;;;;;;;;;;;;;;;;;;4231090;28;20013;-38
2023/03/04 05:17:58;;;;;;;;;;;;;;;;;;4239890;28;19919;-41
2023/03/04 05:19:59;;;;;;;;;;;;;;;;;;4247364;28;20323;-40
2023/03/04 05:22:00;;;;;;;;;;;;;;;;;;4232965;28;19960;-41
2023/03/04 05:24:02;;;;;;;;;;;;;;;;;;4182500;28;1482120;-41
2023/03/04 05:26:02;;;;;;;;;;;;;;;;;;4248497;27;20017;-41
2023/03/04 05:28:06;;;;;;;;;;;;;;;;;;4248812;27;19915;-41
2023/03/04 05:30:07;;;;;;;;;;;;;;;;;;4247756;27;19926;-41
2023/03/04 05:32:08;;;;;;;;;;;;;;;;;;4248718;27;20212;-41
2023/03/04 05:34:09;;;;;;;;;;;;;;;;;;4248193;27;19915;-41
2023/03/04 05:36:10;;;;;;;;;;;;;;;;;;4238763;27;19969;-41
2023/03/04 05:38:11;;;;;;;;;;;;;;;;;;4244555;27;19915;-41
2023/03/04 05:40:12;;;;;;;;;;;;;;;;;;4235579;27;20006;-41
2023/03/04 05:42:13;;;;;;;;;;;;;;;;;;4248447;27;19925;-41
2023/03/04 05:44:14;;;;;;;;;;;;;;;;;;4248314;27;19919;-41
2023/03/04 05:46:16;;;;;;;;;;;;;;;;;;4235633;27;19920;-41
2023/03/04 05:48:16;;;;;;;;;;;;;;;;;;4247608;27;19919;-41
2023/03/04 05:50:18;;;;;;;;;;;;;;;;;;4247883;27;20376;-41
2023/03/04 05:52:19;;;;;;;;;;;;;;;;;;4248511;27;20266;-41
2023/03/04 05:54:20;;;;;;;;;;;;;;;;;;4247456;27;19921;-42
2023/03/04 05:56:21;;;;;;;;;;;;;;;;;;4234243;27;19919;-41
2023/03/04 05:58:22;;;;;;;;;;;;;;;;;;4248504;27;19923;-41
2023/03/04 06:00:23;;;;;;;;;;;;;;;;;;4240509;27;20010;-40
2023/03/04 06:02:24;;;;;;;;;;;;;;;;;;4242416;27;19915;-41
2023/03/04 06:04:25;;;;;;;;;;;;;;;;;;4247494;27;19915;-39
2023/03/04 06:06:26;;;;;;;;;;;;;;;;;;4231486;28;19959;-42
2023/03/04 06:08:27;;;;;;;;;;;;;;;;;;4237665;27;19916;-41
2023/03/04 06:10:28;;;;;;;;;;;;;;;;;;4247805;27;20302;-40
2023/03/04 06:12:29;;;;;;;;;;;;;;;;;;4235241;27;19916;-41
2023/03/04 06:14:31;;;;;;;;;;;;;;;;;;4244583;27;19960;-42
2023/03/04 06:16:32;;;;;;;;;;;;;;;;;;4236245;27;20259;-41
2023/03/04 06:18:33;;;;;;;;;;;;;;;;;;4229745;28;20295;-41
2023/03/04 06:20:34;;;;;;;;;;;;;;;;;;4235547;27;19972;-41
2023/03/04 06:22:36;;;;;;;;;;;;;;;;;;4247785;27;19915;-41
2023/03/04 06:24:37;;;;;;;;;;;;;;;;;;4236091;27;19942;-41
2023/03/04 06:26:38;;;;;;;;;;;;;;;;;;4244655;27;19919;-40
2023/03/04 06:28:39;;;;;;;;;;;;;;;;;;4232420;27;19915;-40
2023/03/04 06:30:40;;;;;;;;;;;;;;;;;;4212671;28;19919;-41
2023/03/04 06:32:46;;;;;;;;;;;;;;;;;;4241615;27;19915;-42
2023/03/04 06:34:47;;;;;;;;;;;;;;;;;;4233069;27;19916;-41
2023/03/04 06:36:48;;;;;;;;;;;;;;;;;;4246890;27;19922;-41
2023/03/04 06:38:50;;;;;;;;;;;;;;;;;;4240600;27;19931;-40
2023/03/04 06:40:51;;;;;;;;;;;;;;;;;;4240775;27;19981;-41
2023/03/04 06:42:52;;;;;;;;;;;;;;;;;;4247616;27;19961;-41
2023/03/04 06:44:53;;;;;;;;;;;;;;;;;;4244438;27;19915;-41
2023/03/04 06:46:54;;;;;;;;;;;;;;;;;;4236289;27;19919;-42
2023/03/04 06:48:55;;;;;;;;;;;;;;;;;;4247326;27;19967;-40
2023/03/04 06:50:56;;;;;;;;;;;;;;;;;;4235508;27;19970;-41
2023/03/04 06:52:57;;;;;;;;;;;;;;;;;;4244248;27;19971;-41
2023/03/04 06:54:58;;;;;;;;;;;;;;;;;;4234823;27;19919;-41
2023/03/04 06:56:59;;;;;;;;;;;;;;;;;;4239776;27;20354;-41
2023/03/04 06:58:59;;;;;;;;;;;;;;;;;;4240836;27;20013;-41
2023/03/04 07:01:01;;;;;;;;;;;;;;;;;;4247356;27;19915;-41
2023/03/04 07:03:02;;;;;;;;;;;;;;;;;;4205134;28;19920;-41
2023/03/04 07:05:04;;;;;;;;;;;;;;;;;;4222516;28;19915;-41
2023/03/04 07:07:05;;;;;;;;;;;;;;;;;;4233421;27;19973;-41
2023/03/04 07:09:06;;;;;;;;;;;;;;;;;;4246961;27;19915;-41
2023/03/04 07:11:07;;;;;;;;;;;;;;;;;;4247524;27;19919;-41
2023/03/04 07:13:08;;;;;;;;;;;;;;;;;;4247395;27;20390;-41
2023/03/04 07:15:09;;;;;;;;;;;;;;;;;;4247046;27;19915;-41
2023/03/04 07:17:11;;;;;;;;;;;;;;;;;;4246932;27;20316;-41
2023/03/04 07:19:12;;;;;;;;;;;;;;;;;;4241318;28;20290;-41
2023/03/04 07:21:14;;;;;;;;;;;;;;;;;;4230176;28;19916;-41
2023/03/04 07:23:14;;;;;;;;;;;;;;;;;;4217432;28;20409;-41
2023/03/04 07:25:16;;;;;;;;;;;;;;;;;;4229441;28;19920;-41
2023/03/04 07:27:18;;;;;;;;;;;;;;;;;;4212127;28;19977;-40
2023/03/04 07:29:19;;;;;;;;;;;;;;;;;;4237975;28;20019;-41
2023/03/04 07:31:20;;;;;;;;;;;;;;;;;;4236507;28;19916;-41
2023/03/04 07:33:21;;;;;;;;;;;;;;;;;;4230358;28;20163;-42
2023/03/04 07:35:22;;;;;;;;;;;;;;;;;;4228444;28;20322;-41
2023/03/04 07:37:24;;;;;;;;;;;;;;;;;;4246959;28;19960;-42
2023/03/04 07:39:25;;;;;;;;;;;;;;;;;;4237522;28;20387;-40
2023/03/04 07:41:26;;;;;;;;;;;;;;;;;;4243596;28;20140;-39
2023/03/04 07:43:27;;;;;;;;;;;;;;;;;;4243822;28;19970;-41
2023/03/04 07:45:28;;;;;;;;;;;;;;;;;;4236123;28;19971;-40
2023/03/04 07:47:28;;;;;;;;;;;;;;;;;;4237445;28;19923;-41
2023/03/04 07:49:29;;;;;;;;;;;;;;;;;;4211660;28;19958;-41
2023/03/04 07:51:30;;;;;;;;;;;;;;;;;;4230075;28;20328;-42
2023/03/04 07:53:31;;;;;;;;;;;;;;;;;;4235180;28;19958;-41
2023/03/04 07:55:33;;;;;;;;;;;;;;;;;;4246768;28;19915;-41
2023/03/04 07:57:34;;;;;;;;;;;;;;;;;;4235418;28;20309;-41
2023/03/04 07:59:35;;;;;;;;;;;;;;;;;;4227393;28;19920;-40
2023/03/04 08:01:36;;;;;;;;;;;;;;;;;;4229964;28;19927;-41
2023/03/04 08:03:37;;;;;;;;;;;;;;;;;;4237193;28;19916;-41
2023/03/04 08:05:38;;;;;;;;;;;;;;;;;;4235998;28;19927;-41
2023/03/04 08:07:39;;;;;;;;;;;;;;;;;;4243264;28;19923;-40
2023/03/04 08:09:40;;;;;;;;;;;;;;;;;;4246327;28;19945;-41
2023/03/04 08:11:42;;;;;;;;;;;;;;;;;;4246522;28;19923;-40
2023/03/04 08:13:43;;;;;;;;;;;;;;;;;;4246851;28;19915;-41
2023/03/04 08:15:43;;;;;;;;;;;;;;;;;;4246502;28;20459;-40
2023/03/04 08:17:45;;;;;;;;;;;;;;;;;;4212136;28;20318;-41
2023/03/04 08:19:46;;;;;;;;;;;;;;;;;;4249326;27;19922;-42
2023/03/04 08:21:47;;;;;;;;;;;;;;;;;;4247873;27;19916;-42
2023/03/04 08:23:48;;;;;;;;;;;;;;;;;;4237943;27;19919;-40
2023/03/04 08:25:49;;;;;;;;;;;;;;;;;;4249456;27;20358;-41
2023/03/04 08:27:51;;;;;;;;;;;;;;;;;;4249663;27;19942;-41
2023/03/04 08:29:51;;;;;;;;;;;;;;;;;;4218979;28;19916;-41
2023/03/04 08:31:53;;;;;;;;;;;;;;;;;;4231545;28;19964;-42
2023/03/04 08:33:55;;;;;;;;;;;;;;;;;;4249549;27;19916;-40
2023/03/04 08:35:56;;;;;;;;;;;;;;;;;;4249630;27;19968;-41
2023/03/04 08:37:57;;;;;;;;;;;;;;;;;;4249531;27;19930;-41
2023/03/04 08:39:58;;;;;;;;;;;;;;;;;;4249064;27;20258;-41
2023/03/04 08:41:59;;;;;;;;;;;;;;;;;;4249547;27;19915;-41
2023/03/04 08:44:00;;;;;;;;;;;;;;;;;;4231211;28;19922;-41
2023/03/04 08:46:01;;;;;;;;;;;;;;;;;;4249529;27;20467;-41
2023/03/04 08:48:02;;;;;;;;;;;;;;;;;;4235475;27;19927;-40
2023/03/04 08:50:03;;;;;;;;;;;;;;;;;;4230459;28;19916;-41
2023/03/04 08:52:04;;;;;;;;;;;;;;;;;;4241710;27;19916;-42
2023/03/04 08:54:05;;;;;;;;;;;;;;;;;;4232264;28;20381;-41
2023/03/04 08:56:06;;;;;;;;;;;;;;;;;;4246314;27;19921;-40
2023/03/04 08:58:07;;;;;;;;;;;;;;;;;;4249359;27;19915;-42
2023/03/04 09:00:08;;;;;;;;;;;;;;;;;;4238709;27;19919;-41
2023/03/04 09:02:09;;;;;;;;;;;;;;;;;;4232377;28;19916;-41
2023/03/04 09:04:11;;;;;;;;;;;;;;;;;;4231969;28;19919;-41
2023/03/04 09:06:12;;;;;;;;;;;;;;;;;;4230957;28;19941;-41
2023/03/04 09:08:13;;;;;;;;;;;;;;;;;;4223710;28;19920;-41
2023/03/04 09:10:14;;;;;;;;;;;;;;;;;;4249067;27;19938;-39
2023/03/04 09:12:15;;;;;;;;;;;;;;;;;;4246752;27;20435;-41
2023/03/04 09:14:16;;;;;;;;;;;;;;;;;;4237050;27;19919;-41
2023/03/04 09:16:18;;;;;;;;;;;;;;;;;;4240653;27;19926;-41
2023/03/04 09:18:19;;;;;;;;;;;;;;;;;;4243479;27;19920;-41
2023/03/04 09:20:21;;;;;;;;;;;;;;;;;;4246669;27;19915;-41
2023/03/04 09:22:23;;;;;;;;;;;;;;;;;;4248919;27;20320;-41
2023/03/04 09:24:23;;;;;;;;;;;;;;;;;;4241098;27;19915;-41
2023/03/04 09:26:24;;;;;;;;;;;;;;;;;;4242373;27;19972;-41
2023/03/04 09:28:25;;;;;;;;;;;;;;;;;;4248126;27;19960;-41
2023/03/04 09:30:27;;;;;;;;;;;;;;;;;;4215524;28;19920;-41
2023/03/04 09:32:28;;;;;;;;;;;;;;;;;;4248958;27;19919;-41
2023/03/04 09:34:29;;;;;;;;;;;;;;;;;;4248262;27;19915;-42
2023/03/04 09:36:30;;;;;;;;;;;;;;;;;;4248644;27;20423;-40
2023/03/04 09:38:31;;;;;;;;;;;;;;;;;;4248302;27;19915;-41
2023/03/04 09:40:33;;;;;;;;;;;;;;;;;;4242058;27;19980;-42
2023/03/04 09:42:34;;;;;;;;;;;;;;;;;;4231576;28;19972;-42
2023/03/04 09:44:35;;;;;;;;;;;;;;;;;;4244322;27;20367;-41
2023/03/04 09:46:36;;;;;;;;;;;;;;;;;;4234177;27;20340;-42
2023/03/04 09:48:38;;;;;;;;;;;;;;;;;;4248230;27;19923;-41
2023/03/04 09:50:39;;;;;;;;;;;;;;;;;;4229816;28;19927;-41
2023/03/04 09:52:40;;;;;;;;;;;;;;;;;;4236600;27;20397;-41
2023/03/04 09:54:41;;;;;;;;;;;;;;;;;;4245002;27;20013;-41
2023/03/04 09:56:42;;;;;;;;;;;;;;;;;;4235486;27;19968;-42
2023/03/04 09:58:43;;;;;;;;;;;;;;;;;;4248474;27;19915;-41
2023/03/04 10:00:44;;;;;;;;;;;;;;;;;;4237581;27;20370;-42
2023/03/04 10:02:45;;;;;;;;;;;;;;;;;;4244910;27;19915;-41
2023/03/04 10:04:47;;;;;;;;;;;;;;;;;;4244619;27;19965;-42
2023/03/04 10:06:53;;;;;;;;;;;;;;;;;;4237641;27;20445;-40
2023/03/04 10:08:53;;;;;;;;;;;;;;;;;;4248020;27;19967;-40
2023/03/04 10:10:55;;;;;;;;;;;;;;;;;;4247966;27;19944;-41
2023/03/04 10:12:56;;;;;;;;;;;;;;;;;;4247661;27;19915;-39
2023/03/04 10:14:57;;;;;;;;;;;;;;;;;;4229795;28;20056;-42
2023/03/04 10:16:58;;;;;;;;;;;;;;;;;;4247896;27;19926;-41
2023/03/04 10:18:58;;;;;;;;;;;;;;;;;;4247765;27;20018;-40
2023/03/04 10:21:00;;;;;;;;;;;;;;;;;;4247591;27;19915;-42
2023/03/04 10:23:01;;;;;;;;;;;;;;;;;;4248041;27;19915;-42
2023/03/04 10:25:02;;;;;;;;;;;;;;;;;;4247380;27;19919;-42
2023/03/04 10:27:03;;;;;;;;;;;;;;;;;;4247934;27;20060;-41
2023/03/04 10:29:06;;;;;;;;;;;;;;;;;;4229429;28;19916;-42
2023/03/04 10:31:07;;;;;;;;;;;;;;;;;;4237131;27;19920;-41
2023/03/04 10:33:08;;;;;;;;;;;;;;;;;;4244548;27;20374;-41
2023/03/04 10:35:09;;;;;;;;;;;;;;;;;;4245946;27;19974;-41
2023/03/04 10:37:10;;;;;;;;;;;;;;;;;;4247804;27;19922;-41
2023/03/04 10:39:12;;;;;;;;;;;;;;;;;;4247554;27;19919;-41
2023/03/04 10:41:13;;;;;;;;;;;;;;;;;;4247587;27;19927;-41
2023/03/04 10:43:14;;;;;;;;;;;;;;;;;;4233479;27;19919;-41
2023/03/04 10:45:15;;;;;;;;;;;;;;;;;;4241632;27;19919;-40
2023/03/04 10:47:17;;;;;;;;;;;;;;;;;;4230612;28;19928;-42
2023/03/04 10:49:20;;;;;;;;;;;;;;;;;;4242758;27;19916;-42
2023/03/04 10:51:21;;;;;;;;;;;;;;;;;;4245811;27;20255;-39
2023/03/04 10:53:22;;;;;;;;;;;;;;;;;;4235259;27;19923;-41
2023/03/04 10:55:23;;;;;;;;;;;;;;;;;;4221344;28;20032;-42
2023/03/04 10:57:24;;;;;;;;;;;;;;;;;;4241527;27;19915;-42
2023/03/04 10:59:25;;;;;;;;;;;;;;;;;;4237471;27;19950;-41
2023/03/04 11:01:29;;;;;;;;;;;;;;;;;;4247445;27;19915;-41
2023/03/04 11:03:30;;;;;;;;;;;;;;;;;;4247252;27;20292;-41
2023/03/04 11:05:31;;;;;;;;;;;;;;;;;;4245904;27;20358;-41
2023/03/04 11:07:34;;;;;;;;;;;;;;;;;;4230311;28;19926;-41
2023/03/04 11:09:35;;;;;;;;;;;;;;;;;;4237395;27;20336;-42
2023/03/04 11:11:36;;;;;;;;;;;;;;;;;;4236806;27;19916;-42
2023/03/04 11:13:37;;;;;;;;;;;;;;;;;;4243976;27;19923;-41
2023/03/04 11:15:39;;;;;;;;;;;;;;;;;;4246570;27;20143;-41
2023/03/04 11:17:40;;;;;;;;;;;;;;;;;;4247530;27;19960;-41
2023/03/04 11:19:41;;;;;;;;;;;;;;;;;;4246653;28;20270;-42
2023/03/04 11:21:42;;;;;;;;;;;;;;;;;;4235051;28;19916;-35
2023/03/04 11:23:43;;;;;;;;;;;;;;;;;;4242658;28;19915;-34
2023/03/04 11:25:44;;;;;;;;;;;;;;;;;;4234561;28;19923;-34
2023/03/04 11:27:45;;;;;;;;;;;;;;;;;;4239219;28;19916;-36
2023/03/04 11:29:46;;;;;;;;;;;;;;;;;;4229871;28;19960;-35
2023/03/04 11:31:47;;;;;;;;;;;;;;;;;;4244284;28;19931;-38
2023/03/04 11:33:49;;;;;;;;;;;;;;;;;;4228926;28;19969;-34
2023/03/04 11:35:49;;;;;;;;;;;;;;;;;;4228343;28;19916;-34
2023/03/04 11:37:51;;;;;;;;;;;;;;;;;;4247148;28;19920;-34
2023/03/04 11:39:52;;;;;;;;;;;;;;;;;;4246923;28;19923;-34
2023/03/04 11:41:53;;;;;;;;;;;;;;;;;;4246900;28;19924;-35
2023/03/04 11:43:54;;;;;;;;;;;;;;;;;;4246747;28;20337;-35
2023/03/04 11:45:55;;;;;;;;;;;;;;;;;;4246911;28;20068;-34
2023/03/04 11:47:56;;;;;;;;;;;;;;;;;;4233401;28;20400;-34
2023/03/04 11:49:58;;;;;;;;;;;;;;;;;;4246089;28;19968;-35
2023/03/04 11:51:59;;;;;;;;;;;;;;;;;;4246981;27;19922;-34
2023/03/04 11:54:00;;;;;;;;;;;;;;;;;;4240370;27;19922;-34
2023/03/04 11:56:01;;;;;;;;;;;;;;;;;;4233259;28;20562;-35
2023/03/04 11:58:02;;;;;;;;;;;;;;;;;;4248440;27;19915;-34
2023/03/04 12:00:03;;;;;;;;;;;;;;;;;;4245230;27;19969;-34
2023/03/04 12:02:12;;;;;;;;;;;;;;;;;;4242385;27;20397;-34
2023/03/04 12:04:14;;;;;;;;;;;;;;;;;;4202674;28;19966;-34
2023/03/04 12:06:15;;;;;;;;;;;;;;;;;;4234406;27;20312;-34
2023/03/04 12:08:16;;;;;;;;;;;;;;;;;;4250136;27;19919;-34
2023/03/04 12:10:17;;;;;;;;;;;;;;;;;;4231688;28;19935;-34
2023/03/04 12:12:18;;;;;;;;;;;;;;;;;;4232983;28;20401;-34
2023/03/04 12:14:19;;;;;;;;;;;;;;;;;;4247227;27;20308;-34
2023/03/04 12:16:20;;;;;;;;;;;;;;;;;;4246865;27;19916;-34
2023/03/04 12:18:21;;;;;;;;;;;;;;;;;;4239884;27;19915;-34
2023/03/04 12:20:23;;;;;;;;;;;;;;;;;;4230977;28;19919;-34
2023/03/04 12:22:24;;;;;;;;;;;;;;;;;;4249763;27;20331;-34
2023/03/04 12:24:26;;;;;;;;;;;;;;;;;;4242375;27;19923;-34
2023/03/04 12:26:26;;;;;;;;;;;;;;;;;;4207037;28;20013;-35
2023/03/04 12:28:27;;;;;;;;;;;;;;;;;;4200421;28;19963;-35
2023/03/04 12:30:28;;;;;;;;;;;;;;;;;;4199643;28;19924;-34
2023/03/04 12:32:29;;;;;;;;;;;;;;;;;;4199386;28;19916;-34
2023/03/04 12:34:30;;;;;;;;;;;;;;;;;;4210279;28;19920;-34
2023/03/04 12:36:32;;;;;;;;;;;;;;;;;;4201724;28;19938;-32
2023/03/04 12:38:33;;;;;;;;;;;;;;;;;;4215844;28;19926;-34
2023/03/04 12:40:34;;;;;;;;;;;;;;;;;;4215798;28;19919;-34
2023/03/04 12:42:35;;;;;;;;;;;;;;;;;;4211315;28;19923;-34
2023/03/04 12:44:36;;;;;;;;;;;;;;;;;;4198653;28;19962;-36
2023/03/04 12:46:37;;;;;;;;;;;;;;;;;;4215426;28;19986;-35
2023/03/04 12:48:38;;;;;;;;;;;;;;;;;;4209122;28;20330;-35
2023/03/04 12:50:39;;;;;;;;;;;;;;;;;;4208181;28;19916;-34
2023/03/04 12:52:41;;;;;;;;;;;;;;;;;;4215422;28;19927;-34
2023/03/04 12:54:42;;;;;;;;;;;;;;;;;;4201247;28;19916;-35
2023/03/04 12:56:43;;;;;;;;;;;;;;;;;;4210020;28;19939;-34
2023/03/04 12:58:44;;;;;;;;;;;;;;;;;;4207244;28;20286;-34
2023/03/04 13:00:45;;;;;;;;;;;;;;;;;;4214877;28;20295;-34
2023/03/04 13:02:46;;;;;;;;;;;;;;;;;;4215020;28;19920;-34
2023/03/04 13:04:47;;;;;;;;;;;;;;;;;;4210204;28;19974;-35
2023/03/04 13:06:48;;;;;;;;;;;;;;;;;;4205849;28;19916;-34
2023/03/04 13:08:49;;;;;;;;;;;;;;;;;;4215214;28;20474;-34
2023/03/04 13:10:51;;;;;;;;;;;;;;;;;;4197150;28;19923;-35
2023/03/04 13:12:52;;;;;;;;;;;;;;;;;;4198541;28;20275;-35
2023/03/04 13:14:53;;;;;;;;;;;;;;;;;;4186567;28;19923;-34
2023/03/04 13:16:54;;;;;;;;;;;;;;;;;;4198464;28;20029;-35
2023/03/04 13:18:55;;;;;;;;;;;;;;;;;;4210241;28;20283;-35
2023/03/04 13:20:56;;;;;;;;;;;;;;;;;;4214823;28;19946;-34
2023/03/04 13:22:56;;;;;;;;;;;;;;;;;;4215093;28;20423;-34
2023/03/04 13:24:58;;;;;;;;;;;;;;;;;;4222768;28;19923;-35
2023/03/04 13:26:59;;;;;;;;;;;;;;;;;;4231365;28;19919;-34
2023/03/04 13:29:01;;;;;;;;;;;;;;;;;;4213361;28;19920;-34
2023/03/04 13:31:02;;;;;;;;;;;;;;;;;;4231878;28;19922;-35
2023/03/04 13:33:03;;;;;;;;;;;;;;;;;;4220706;28;19916;-34
2023/03/04 13:35:04;;;;;;;;;;;;;;;;;;4228845;28;19957;-34
2023/03/04 13:37:05;;;;;;;;;;;;;;;;;;4231687;28;19915;-35
2023/03/04 13:39:06;;;;;;;;;;;;;;;;;;4231505;28;19915;-34
2023/03/04 13:41:07;;;;;;;;;;;;;;;;;;4231817;28;19931;-35
2023/03/04 13:43:08;;;;;;;;;;;;;;;;;;4231611;28;19923;-34
2023/03/04 13:45:09;;;;;;;;;;;;;;;;;;4231004;28;20325;-35
2023/03/04 13:47:10;;;;;;;;;;;;;;;;;;4231477;28;19924;-35